Luton, United Kingdom
Current Conditions -  °F | °C
As of 1:20 PM on Thursday 18 Dec 2014 (Local Time) from EGGW Reporting Station
Overcast Overcast  
Wind Chill: 54°   Ceiling: 1400
Heat Index: 54°   Visibility: 6mi
Dew Point: 50°   Wind: 24mph
Humidity: 88%   Direction: 240°WSW
Pressure: 29.77"   Gusts: 37mph
Location:  51.88°N, 0.42°W
Report Text: EGGW 181320Z 24021G32KT 9999 OVC014 12/10 Q1008
Loading
Personal Weather Stations






























Interactive Weather Map New forecast layout! Learn more

10-Day Weather Forecast

Advertisements
Track Severe Weather on mobile